Time;durP1;ratioP1;P1;durP2;ratioP2;P2;SDS_P1;SDS_P2;PMS_P1;PMS_P2;Temp;Humidity;BMP_temperature;BMP_pressure;BME280_temperature;BME280_humidity;BME280_pressure;Samples;Min_cycle;Max_cycle;Signal;HPM_P1;HPM_P2
2022/03/19 00:01:02;;;;;;;80.20;29.58;;;;;;;4.83;100.00;100339.50;4985918;28;20048;-56
2022/03/19 00:03:27;;;;;;;85.65;30.38;;;;;;;4.43;100.00;100337.00;4985689;28;20026;-55
2022/03/19 00:05:53;;;;;;;70.35;25.23;;;;;;;5.50;100.00;100326.94;4979322;28;20046;-56
2022/03/19 00:08:18;;;;;;;67.72;25.02;;;;;;;4.35;100.00;100333.38;4982484;28;20485;-54
2022/03/19 00:10:45;;;;;;;91.32;33.33;;;;;;;4.23;100.00;100325.38;4982286;28;20047;-55
2022/03/19 00:13:10;;;;;;;71.97;27.25;;;;;;;4.98;100.00;100323.41;4979651;28;20031;-55
2022/03/19 00:15:37;;;;;;;76.00;26.80;;;;;;;5.06;100.00;100324.44;4981555;28;20038;-56
2022/03/19 00:18:04;;;;;;;64.43;20.15;;;;;;;5.43;100.00;100319.91;4982433;28;20482;-56
2022/03/19 00:20:31;;;;;;;67.40;25.83;;;;;;;5.10;100.00;100315.88;4985027;28;20021;-55
2022/03/19 00:22:56;;;;;;;72.63;29.02;;;;;;;5.76;100.00;100323.91;4981906;28;20037;-54
2022/03/19 00:25:21;;;;;;;65.60;25.58;;;;;;;5.07;100.00;100313.25;4982826;28;20021;-56
2022/03/19 00:27:47;;;;;;;70.30;27.90;;;;;;;5.76;100.00;100319.59;4984087;28;20045;-55
2022/03/19 00:30:13;;;;;;;42.85;18.55;;;;;;;6.52;100.00;100315.50;4981056;28;20443;-54
2022/03/19 00:32:38;;;;;;;38.80;15.98;;;;;;;6.28;100.00;100323.84;4984741;28;20025;-54
2022/03/19 00:35:04;;;;;;;72.72;27.77;;;;;;;5.85;100.00;100313.69;4986141;28;20033;-56
2022/03/19 00:37:31;;;;;;;48.45;20.15;;;;;;;6.00;100.00;100312.22;4978295;28;20035;-55
2022/03/19 00:39:56;;;;;;;68.85;28.73;;;;;;;5.68;100.00;100310.84;4986323;28;20627;-54
2022/03/19 00:42:22;;;;;;;41.17;14.55;;;;;;;6.31;100.00;100300.56;4990110;28;20033;-56
2022/03/19 00:44:47;;;;;;;57.22;18.27;;;;;;;6.25;100.00;100290.09;4981838;28;20678;-54
2022/03/19 00:47:13;;;;;;;71.32;27.25;;;;;;;5.98;100.00;100299.22;4981577;28;20042;-55
2022/03/19 00:49:38;;;;;;;76.78;31.48;;;;;;;5.96;100.00;100283.66;4984123;28;20033;-54
2022/03/19 00:52:05;;;;;;;48.97;15.60;;;;;;;7.10;100.00;100297.13;4980928;28;20589;-56
2022/03/19 00:54:30;;;;;;;45.45;15.95;;;;;;;7.63;100.00;100298.47;4978443;28;20032;-55
2022/03/19 00:56:55;;;;;;;70.95;29.02;;;;;;;6.69;100.00;100295.84;4978206;28;20039;-54
2022/03/19 00:59:21;;;;;;;83.07;31.00;;;;;;;4.54;100.00;100298.47;4984551;28;20031;-55
2022/03/19 01:01:46;;;;;;;48.25;17.13;;;;;;;6.12;100.00;100294.22;4981319;28;20034;-54
2022/03/19 01:04:11;;;;;;;49.47;17.73;;;;;;;6.03;100.00;100291.50;4981609;28;20022;-56
2022/03/19 01:06:37;;;;;;;52.92;20.90;;;;;;;6.25;100.00;100285.78;4982421;28;20738;-56
2022/03/19 01:09:02;;;;;;;54.60;19.25;;;;;;;6.11;100.00;100287.31;4979596;28;20058;-55
2022/03/19 01:11:28;;;;;;;56.20;20.10;;;;;;;5.56;100.00;100295.97;4980304;28;20700;-55
2022/03/19 01:13:55;;;;;;;48.40;14.88;;;;;;;7.17;100.00;100287.66;4985203;28;20026;-57
2022/03/19 01:16:21;;;;;;;71.57;25.75;;;;;;;6.12;100.00;100291.63;4981701;28;20097;-56
2022/03/19 01:18:47;;;;;;;42.70;14.30;;;;;;;6.55;100.00;100295.66;4982585;28;20026;-56
2022/03/19 01:21:12;;;;;;;65.07;22.10;;;;;;;6.72;100.00;100289.81;4980808;28;20030;-56
2022/03/19 01:23:38;;;;;;;50.28;16.50;;;;;;;6.46;100.00;100289.50;4981146;28;20030;-55
2022/03/19 01:26:03;;;;;;;59.78;21.98;;;;;;;6.66;100.00;100285.44;4979020;28;20044;-57
2022/03/19 01:28:29;;;;;;;87.18;31.42;;;;;;;5.71;100.00;100284.13;4984469;28;20141;-56
2022/03/19 01:30:54;;;;;;;48.80;16.30;;;;;;;6.41;100.00;100275.59;4985176;28;20034;-56
2022/03/19 01:33:19;;;;;;;71.30;25.02;;;;;;;6.35;100.00;100273.81;4984526;28;20069;-56
2022/03/19 01:35:45;;;;;;;76.13;27.17;;;;;;;5.64;100.00;100282.28;4980419;28;20061;-54
2022/03/19 01:38:10;;;;;;;60.17;24.00;;;;;;;5.75;100.00;100280.72;4985679;28;20034;-55
2022/03/19 01:40:36;;;;;;;49.10;17.77;;;;;;;5.75;100.00;100271.25;4986806;28;20038;-55
2022/03/19 01:43:01;;;;;;;47.95;15.57;;;;;;;6.71;100.00;100273.38;4986043;28;20438;-55
2022/03/19 01:45:27;;;;;;;45.22;14.93;;;;;;;6.81;100.00;100284.72;4986878;28;20049;-56
2022/03/19 01:47:54;;;;;;;43.42;15.80;;;;;;;6.86;100.00;100271.81;4984855;28;20785;-56
2022/03/19 01:50:21;;;;;;;43.60;15.07;;;;;;;7.37;100.00;100270.56;4984698;28;20037;-56
2022/03/19 01:52:46;;;;;;;34.58;13.40;;;;;;;7.52;100.00;100262.88;4985850;28;20034;-53
2022/03/19 01:55:15;;;;;;;44.47;19.17;;;;;;;5.99;100.00;100267.28;4986409;28;20451;-55
2022/03/19 01:57:43;;;;;;;34.78;12.90;;;;;;;7.30;100.00;100263.56;4983581;28;20030;-55
2022/03/19 02:00:12;;;;;;;68.10;29.90;;;;;;;5.96;100.00;100259.47;4985694;28;20030;-54
2022/03/19 02:02:37;;;;;;;46.17;18.77;;;;;;;6.63;100.00;100248.22;4983160;28;20030;-53
2022/03/19 02:05:03;;;;;;;48.45;17.02;;;;;;;6.22;100.00;100252.06;4988597;28;20026;-54
2022/03/19 02:07:30;;;;;;;46.20;20.23;;;;;;;6.03;100.00;100255.25;4982707;28;20070;-55
2022/03/19 02:09:59;;;;;;;66.82;28.33;;;;;;;5.92;100.00;100252.50;4986301;28;20089;-54
2022/03/19 02:12:25;;;;;;;54.05;22.63;;;;;;;5.47;100.00;100259.56;4987069;28;20027;-53
2022/03/19 02:14:50;;;;;;;65.32;25.50;;;;;;;5.95;100.00;100248.22;4987222;28;20162;-54
2022/03/19 02:17:16;;;;;;;60.70;25.40;;;;;;;5.86;100.00;100247.22;4986550;28;20057;-54
2022/03/19 02:19:49;;;;;;;61.35;25.88;;;;;;;5.69;100.00;100245.25;4989174;28;20055;-54
2022/03/19 02:22:15;;;;;;;50.90;20.65;;;;;;;5.64;100.00;100246.03;4986571;28;20039;-54
2022/03/19 02:27:24;;;;;;;75.82;28.60;;;;;;;5.34;100.00;100242.13;4982503;28;20045;-53
2022/03/19 02:29:49;;;;;;;66.47;25.20;;;;;;;5.52;100.00;100234.63;4987996;28;20030;-55
2022/03/19 02:32:15;;;;;;;61.15;24.27;;;;;;;5.44;100.00;100225.91;4988605;28;20038;-52
2022/03/19 02:34:40;;;;;;;77.07;28.98;;;;;;;5.38;100.00;100228.38;4983919;28;20500;-54
2022/03/19 02:37:06;;;;;;;72.10;26.63;;;;;;;5.47;100.00;100225.94;4981520;28;20049;-53
2022/03/19 02:39:31;;;;;;;77.72;27.98;;;;;;;5.35;100.00;100223.16;4984758;28;20048;-54
2022/03/19 02:41:59;;;;;;;78.00;31.40;;;;;;;5.36;100.00;100219.72;4986308;28;20034;-55
2022/03/19 02:44:25;;;;;;;68.97;27.80;;;;;;;5.19;100.00;100222.91;4986750;28;20029;-54
2022/03/19 02:46:56;;;;;;;71.00;29.70;;;;;;;5.19;100.00;100222.03;4987350;28;20042;-53
2022/03/19 02:49:23;;;;;;;79.90;31.17;;;;;;;5.40;100.00;100216.31;4988316;28;20070;-53
2022/03/19 02:51:50;;;;;;;73.57;30.42;;;;;;;4.98;100.00;100212.19;4984219;28;20045;-53
2022/03/19 02:54:19;;;;;;;65.68;25.85;;;;;;;5.17;100.00;100213.38;4990965;28;20032;-52
2022/03/19 02:56:45;;;;;;;70.63;29.00;;;;;;;4.88;100.00;100213.75;4986851;28;20042;-54
2022/03/19 02:59:17;;;;;;;69.30;28.15;;;;;;;4.91;100.00;100210.38;4987469;28;20083;-54
2022/03/19 03:01:47;;;;;;;72.05;29.15;;;;;;;4.88;100.00;100208.59;4989517;28;20061;-54
2022/03/19 03:04:13;;;;;;;80.00;29.88;;;;;;;4.80;100.00;100208.47;4985415;28;20022;-54
2022/03/19 03:06:41;;;;;;;79.18;32.53;;;;;;;4.97;100.00;100205.28;4985104;28;20046;-54
2022/03/19 03:09:07;;;;;;;73.80;30.63;;;;;;;4.87;100.00;100203.38;4986790;28;20038;-55
2022/03/19 03:11:34;;;;;;;80.85;32.53;;;;;;;4.90;100.00;100198.28;4985995;28;20103;-54
2022/03/19 03:13:59;;;;;;;82.00;33.90;;;;;;;4.72;100.00;100191.91;4982705;28;20030;-53
2022/03/19 03:16:26;;;;;;;90.40;32.50;;;;;;;4.81;100.00;100193.81;4985074;28;20465;-54
2022/03/19 03:18:54;;;;;;;88.43;33.58;;;;;;;4.85;100.00;100195.59;4987451;28;20066;-53
2022/03/19 03:21:19;;;;;;;80.97;33.00;;;;;;;4.84;100.00;100193.88;4989161;28;20563;-54
2022/03/19 03:23:45;;;;;;;83.53;31.88;;;;;;;4.80;100.00;100192.94;4988545;28;20026;-52
2022/03/19 03:26:10;;;;;;;82.68;33.53;;;;;;;4.86;100.00;100186.13;4988452;28;20136;-53
2022/03/19 03:28:36;;;;;;;87.05;33.42;;;;;;;4.98;100.00;100186.31;4984812;28;20101;-54
2022/03/19 03:31:02;;;;;;;80.32;33.45;;;;;;;4.90;100.00;100182.75;4984801;28;20042;-54
2022/03/19 03:33:27;;;;;;;80.70;32.53;;;;;;;4.70;100.00;100180.69;4985448;28;20065;-54
2022/03/19 03:35:53;;;;;;;84.18;34.25;;;;;;;4.89;100.00;100187.06;4989611;28;20462;-54
2022/03/19 03:38:19;;;;;;;80.70;31.42;;;;;;;4.98;100.00;100181.16;4990381;28;20094;-54
2022/03/19 03:40:44;;;;;;;89.55;33.67;;;;;;;4.82;100.00;100173.16;4986205;28;20034;-55
2022/03/19 03:43:10;;;;;;;85.10;32.63;;;;;;;4.74;100.00;100177.31;4985789;28;20022;-53
2022/03/19 03:45:35;;;;;;;72.75;31.77;;;;;;;4.69;100.00;100178.97;4986542;28;20030;-55
2022/03/19 03:48:01;;;;;;;77.63;26.85;;;;;;;4.89;100.00;100183.59;4986724;28;20331;-53
2022/03/19 03:50:27;;;;;;;73.05;30.20;;;;;;;5.03;100.00;100171.75;4990064;28;20154;-53
2022/03/19 03:52:52;;;;;;;77.68;29.30;;;;;;;5.08;100.00;100177.88;4986220;28;20617;-54
2022/03/19 03:55:18;;;;;;;66.85;28.67;;;;;;;5.26;100.00;100174.72;4987336;28;20101;-54
2022/03/19 03:57:43;;;;;;;57.28;23.45;;;;;;;5.35;100.00;100177.44;4986495;28;20049;-53
2022/03/19 04:00:10;;;;;;;44.15;15.68;;;;;;;5.73;100.00;100171.06;4987657;28;20030;-55
2022/03/19 04:02:36;;;;;;;73.50;29.27;;;;;;;4.68;100.00;100172.03;4983507;28;20026;-53
2022/03/19 04:05:03;;;;;;;70.65;29.27;;;;;;;4.96;100.00;100167.31;4981921;28;20022;-54
2022/03/19 04:07:29;;;;;;;63.50;26.25;;;;;;;4.64;100.00;100170.25;4982673;28;20057;-54
2022/03/19 04:09:55;;;;;;;58.00;23.10;;;;;;;4.46;100.00;100165.59;4986976;28;20029;-53
2022/03/19 04:12:22;;;;;;;61.13;25.27;;;;;;;4.51;100.00;100163.13;4987169;28;20543;-53
2022/03/19 04:14:47;;;;;;;73.32;23.25;;;;;;;4.31;100.00;100158.44;4983852;28;20108;-53
2022/03/19 04:17:12;;;;;;;42.42;14.43;;;;;;;5.57;100.00;100157.91;4987498;28;20049;-54
2022/03/19 04:19:39;;;;;;;41.38;16.33;;;;;;;6.49;100.00;100154.72;4988216;28;20022;-54
2022/03/19 04:22:04;;;;;;;36.90;14.82;;;;;;;5.87;100.00;100153.97;4986675;28;20038;-54
2022/03/19 04:24:29;;;;;;;40.00;15.02;;;;;;;5.61;100.00;100158.81;4987217;28;20018;-55
2022/03/19 04:26:56;;;;;;;53.38;22.45;;;;;;;5.81;100.00;100161.69;4987285;28;20496;-54
2022/03/19 04:29:22;;;;;;;46.15;18.08;;;;;;;5.38;100.00;100155.91;4987404;28;20037;-54
2022/03/19 04:31:47;;;;;;;83.18;32.28;;;;;;;3.62;100.00;100160.50;4980647;28;20034;-55
2022/03/19 04:34:12;;;;;;;69.97;25.67;;;;;;;5.04;100.00;100160.56;4987866;28;20065;-53
2022/03/19 04:36:38;;;;;;;66.60;25.67;;;;;;;4.13;100.00;100160.66;4984473;28;21035;-55
2022/03/19 04:39:05;;;;;;;37.33;14.35;;;;;;;5.54;100.00;100163.03;4983138;28;20445;-55
2022/03/19 04:41:33;;;;;;;56.65;20.85;;;;;;;5.38;100.00;100155.91;4979057;28;20121;-54
2022/03/19 04:43:59;;;;;;;49.42;20.20;;;;;;;5.10;100.00;100155.50;4986358;28;20022;-52
2022/03/19 04:46:24;;;;;;;76.35;30.65;;;;;;;3.99;100.00;100158.69;4983095;28;20057;-53
2022/03/19 04:48:50;;;;;;;42.97;16.92;;;;;;;5.33;100.00;100165.31;4985322;28;20030;-54
2022/03/19 04:51:21;;;;;;;69.72;28.60;;;;;;;4.28;100.00;100160.94;4986075;28;20124;-54
2022/03/19 04:53:50;;;;;;;36.25;14.52;;;;;;;5.51;100.00;100163.00;4985132;28;20081;-55
2022/03/19 04:56:23;;;;;;;38.70;14.80;;;;;;;5.99;100.00;100155.88;4984954;28;20660;-53
2022/03/19 04:58:49;;;;;;;;;;;;;;;4.27;100.00;100161.81;4987455;28;20053;-53
2022/03/19 05:01:16;;;;;;;74.57;30.17;;;;;;;4.15;100.00;100170.19;4986652;28;19918;-53
2022/03/19 05:03:41;;;;;;;56.17;22.10;;;;;;;4.57;100.00;100165.81;4988063;28;20489;-53
2022/03/19 05:06:06;;;;;;;86.07;34.33;;;;;;;3.69;100.00;100174.41;4983293;28;20052;-54
2022/03/19 05:08:32;;;;;;;44.30;15.50;;;;;;;4.95;100.00;100171.63;4986537;28;20035;-55
2022/03/19 05:11:17;;;;;;;78.88;31.27;;;;;;;3.82;100.00;100170.38;4983876;28;20540;-54
2022/03/19 05:13:53;;;;;;;56.05;20.15;;;;;;;4.87;100.00;100173.25;4985589;28;20069;-53
2022/03/19 05:16:19;;;;;;;59.58;24.88;;;;;;;4.29;100.00;100174.78;4991176;28;20700;-53
2022/03/19 05:18:44;;;;;;;83.88;32.33;;;;;;;3.79;100.00;100175.50;4990162;28;20502;-53
2022/03/19 05:21:12;;;;;;;67.97;25.25;;;;;;;4.51;100.00;100178.63;4988143;28;20034;-54
2022/03/19 05:23:37;;;;;;;51.88;19.70;;;;;;;3.84;100.00;100171.28;4991928;28;20027;-54
2022/03/19 05:26:03;;;;;;;76.18;30.40;;;;;;;3.63;100.00;100175.13;4991648;28;20046;-54
2022/03/19 05:28:28;;;;;;;51.83;20.40;;;;;;;4.60;100.00;100173.63;4994052;28;20061;-53
2022/03/19 05:30:54;;;;;;;84.25;30.92;;;;;;;2.76;100.00;100181.69;4990250;28;20112;-52
2022/03/19 05:33:19;;;;;;;78.07;31.42;;;;;;;3.14;100.00;100181.75;4991177;28;20393;-54
2022/03/19 05:35:45;;;;;;;68.20;26.45;;;;;;;4.11;100.00;100177.84;4990062;28;20411;-55
2022/03/19 05:38:11;;;;;;;71.72;25.88;;;;;;;3.88;100.00;100179.94;4986226;28;20122;-54
2022/03/19 05:40:36;;;;;;;52.72;17.98;;;;;;;4.13;100.00;100183.91;4987682;28;20038;-54
2022/03/19 05:43:02;;;;;;;49.47;19.52;;;;;;;4.87;100.00;100172.34;4995319;28;20054;-54
2022/03/19 05:45:27;;;;;;;73.78;27.75;;;;;;;4.17;100.00;100167.63;4992063;28;20050;-54
2022/03/19 05:47:53;;;;;;;49.13;17.52;;;;;;;4.91;100.00;100175.03;4989900;28;20057;-54
2022/03/19 05:50:19;;;;;;;89.57;30.92;;;;;;;3.53;100.00;100173.22;4988959;28;20663;-53
2022/03/19 05:52:47;;;;;;;60.53;23.92;;;;;;;4.54;100.00;100163.16;4989779;28;20057;-54
2022/03/19 05:55:14;;;;;;;56.55;19.50;;;;;;;5.20;100.00;100162.56;4983920;28;20042;-55
2022/03/19 05:57:40;;;;;;;73.13;31.15;;;;;;;4.76;100.00;100164.41;4989336;28;20037;-54
2022/03/19 06:00:08;;;;;;;74.40;29.63;;;;;;;5.45;100.00;100172.41;4991208;28;20022;-53
2022/03/19 06:02:38;;;;;;;53.63;19.77;;;;;;;6.42;100.00;100171.06;4991134;28;20412;-54
2022/03/19 06:05:04;;;;;;;72.53;26.92;;;;;;;6.01;100.00;100163.66;4987040;28;20150;-54
2022/03/19 06:07:29;;;;;;;81.18;31.52;;;;;;;5.48;100.00;100170.72;4986641;28;20708;-53
2022/03/19 06:09:54;;;;;;;64.28;28.15;;;;;;;6.35;100.00;100163.22;4993099;28;20663;-52
2022/03/19 06:12:21;;;;;;;66.97;27.70;;;;;;;5.90;100.00;100156.63;4992410;28;20042;-53
2022/03/19 06:14:46;;;;;;;82.13;31.02;;;;;;;6.55;100.00;100158.22;4990511;28;20457;-55
2022/03/19 06:17:11;;;;;;;71.68;30.60;;;;;;;7.05;100.00;100156.94;4992991;28;20513;-54
2022/03/19 06:19:37;;;;;;;61.22;24.13;;;;;;;7.68;100.00;100151.28;5003998;28;20021;-55
2022/03/19 06:22:02;;;;;;;71.15;31.05;;;;;;;7.53;100.00;100152.06;4993459;28;20043;-54
2022/03/19 06:24:27;;;;;;;67.50;27.10;;;;;;;8.20;100.00;100141.09;4988865;28;20022;-54
2022/03/19 06:26:53;;;;;;;63.38;29.10;;;;;;;8.60;100.00;100138.63;4989571;28;20064;-53
2022/03/19 06:29:18;;;;;;;66.55;30.38;;;;;;;8.25;100.00;100133.31;4988297;28;20546;-54
2022/03/19 06:31:43;;;;;;;72.47;31.25;;;;;;;8.61;100.00;100137.75;4989052;28;20081;-54
2022/03/19 06:34:09;;;;;;;73.68;31.10;;;;;;;9.99;100.00;100134.03;4986496;28;20023;-55
2022/03/19 06:39:18;;;;;;;59.30;28.40;;;;;;;11.40;100.00;100120.00;4991578;28;20167;-53
2022/03/19 06:41:43;;;;;;;66.25;28.85;;;;;;;11.30;100.00;100122.72;4990314;28;20049;-54
2022/03/19 06:44:09;;;;;;;63.03;27.98;;;;;;;10.40;100.00;100121.69;4990757;28;20437;-54
2022/03/19 06:46:34;;;;;;;58.47;26.45;;;;;;;10.09;100.00;100127.06;4988453;28;20048;-54
2022/03/19 06:48:59;;;;;;;59.47;29.33;;;;;;;11.28;100.00;100116.63;4989200;28;20022;-55
2022/03/19 06:51:25;;;;;;;58.30;28.20;;;;;;;11.38;100.00;100114.78;4987750;28;20726;-53
2022/03/19 06:53:50;;;;;;;55.75;28.10;;;;;;;13.47;100.00;100108.28;4989268;28;20057;-55
2022/03/19 06:56:16;;;;;;;53.55;27.95;;;;;;;12.79;86.81;100106.84;4987919;28;20061;-54
2022/03/19 06:58:42;;;;;;;62.10;28.75;;;;;;;13.63;80.60;100100.97;4989305;28;20030;-54
2022/03/19 07:01:14;;;;;;;52.38;26.23;;;;;;;14.21;73.18;100099.75;4987222;28;20034;-55
2022/03/19 07:03:43;;;;;;;57.10;28.42;;;;;;;15.02;63.73;100083.81;4988996;28;20025;-55
2022/03/19 07:06:09;;;;;;;57.53;28.92;;;;;;;14.68;62.23;100089.06;4987844;28;20367;-55
2022/03/19 07:08:35;;;;;;;54.30;26.50;;;;;;;14.84;67.29;100085.16;4982308;28;20631;-54
2022/03/19 07:11:00;;;;;;;58.55;28.85;;;;;;;16.22;63.67;100074.31;4984471;28;20404;-55
2022/03/19 07:13:25;;;;;;;52.25;28.60;;;;;;;15.80;60.60;100080.81;4985198;28;20026;-54
2022/03/19 07:15:51;;;;;;;51.47;27.40;;;;;;;15.21;59.14;100078.94;4988522;28;20499;-55
2022/03/19 07:18:16;;;;;;;49.08;27.48;;;;;;;16.87;56.36;100067.88;4987389;28;20030;-54
2022/03/19 07:20:42;;;;;;;47.95;27.02;;;;;;;16.89;54.28;100066.03;4984221;28;20046;-56
2022/03/19 07:23:07;;;;;;;53.47;27.83;;;;;;;17.79;50.67;100071.63;4986835;28;20030;-54
2022/03/19 07:25:35;;;;;;;51.20;27.45;;;;;;;18.99;47.79;100058.94;4986176;28;20037;-55
2022/03/19 07:28:03;;;;;;;50.65;28.05;;;;;;;17.75;49.98;100056.78;4989819;28;20602;-53
2022/03/19 07:30:29;;;;;;;50.85;27.08;;;;;;;17.61;51.64;100054.69;4989217;28;20435;-53
2022/03/19 07:32:54;;;;;;;48.45;27.48;;;;;;;18.43;45.85;100054.19;4981875;28;20660;-54
2022/03/19 07:35:20;;;;;;;45.78;26.55;;;;;;;17.54;46.55;100055.84;4984693;28;20025;-54
2022/03/19 07:37:46;;;;;;;44.63;26.10;;;;;;;19.34;42.56;100051.25;4986043;28;20121;-54
2022/03/19 07:40:14;;;;;;;46.40;25.85;;;;;;;17.96;43.54;100054.28;4987278;28;20037;-53
2022/03/19 07:42:40;;;;;;;40.05;23.63;;;;;;;19.16;43.09;100054.69;4983980;28;20029;-54
2022/03/19 07:45:07;;;;;;;44.63;25.02;;;;;;;17.98;43.03;100041.91;4982552;28;20022;-54
2022/03/19 07:47:34;;;;;;;39.30;23.55;;;;;;;17.69;42.52;100041.19;4984381;28;20201;-54
2022/03/19 07:50:00;;;;;;;40.80;23.80;;;;;;;20.18;39.82;100027.97;4984361;28;20030;-54
2022/03/19 07:52:26;;;;;;;41.13;23.60;;;;;;;22.42;37.38;100027.69;4985646;28;20034;-52
2022/03/19 07:54:54;;;;;;;45.35;24.85;;;;;;;20.87;37.95;100023.69;4984750;28;20030;-53
2022/03/19 07:57:21;;;;;;;38.88;22.10;;;;;;;21.69;36.74;100033.53;4986857;28;20490;-52
2022/03/19 07:59:46;;;;;;;35.97;20.77;;;;;;;20.03;39.15;100015.44;4986320;28;20041;-54
2022/03/19 08:02:11;;;;;;;36.42;22.05;;;;;;;20.66;37.09;100016.81;4989193;28;20045;-54
2022/03/19 08:04:37;;;;;;;35.40;21.73;;;;;;;22.46;36.06;100018.63;4990440;28;20125;-55
2022/03/19 08:07:02;;;;;;;40.22;23.02;;;;;;;20.51;37.43;100016.66;4987035;28;20050;-54
2022/03/19 08:09:27;;;;;;;36.22;21.27;;;;;;;21.74;35.70;100012.91;4986353;28;20033;-52
2022/03/19 08:11:53;;;;;;;41.33;19.60;;;;;;;19.44;36.93;100007.53;4983834;28;20050;-54
2022/03/19 08:14:19;;;;;;;35.80;19.63;;;;;;;22.24;35.01;100007.47;4983239;28;20044;-55
2022/03/19 08:16:46;;;;;;;35.55;18.67;;;;;;;21.47;35.42;100001.16;4988042;28;20082;-53
2022/03/19 08:19:12;;;;;;;31.20;17.80;;;;;;;22.19;35.23;100010.41;4984578;28;20147;-54
2022/03/19 08:21:44;;;;;;;32.55;18.52;;;;;;;20.34;36.37;99998.91;4982547;28;20040;-52
2022/03/19 08:24:10;;;;;;;25.58;15.25;;;;;;;19.76;37.33;100002.59;4987684;28;20472;-52
2022/03/19 08:26:37;;;;;;;27.40;14.75;;;;;;;19.28;37.23;99995.97;4985254;28;20052;-54
2022/03/19 08:29:04;;;;;;;27.13;15.00;;;;;;;18.21;38.69;100002.22;4985085;28;20026;-53
2022/03/19 08:31:31;;;;;;;25.23;13.60;;;;;;;17.00;40.73;99994.50;4984900;28;20039;-53
2022/03/19 08:33:56;;;;;;;27.77;13.15;;;;;;;16.02;40.49;99989.84;4984178;28;20030;-54
2022/03/19 08:36:22;;;;;;;24.10;11.98;;;;;;;19.81;36.46;99983.81;4987407;28;20040;-54
2022/03/19 08:41:32;;;;;;;26.05;12.02;;;;;;;17.78;38.23;99985.41;4985903;28;20108;-53
2022/03/19 08:43:58;;;;;;;25.88;11.55;;;;;;;18.70;38.46;99978.19;4985495;28;20777;-54
2022/03/19 08:46:24;;;;;;;24.85;10.90;;;;;;;17.60;40.04;99979.06;4985333;28;20042;-54
2022/03/19 08:48:49;;;;;;;22.27;10.95;;;;;;;18.25;38.35;99966.84;4985798;28;20026;-55
2022/03/19 08:53:59;;;;;;;25.05;11.32;;;;;;;17.42;39.17;99985.03;4984532;28;20036;-54
2022/03/19 08:56:24;;;;;;;26.58;10.23;;;;;;;18.27;38.03;99967.63;4981685;28;20042;-53
2022/03/19 08:58:50;;;;;;;22.17;9.35;;;;;;;19.94;39.34;99957.59;4986592;28;20029;-53
2022/03/19 09:01:15;;;;;;;23.20;10.02;;;;;;;18.71;35.66;99963.16;4982455;28;20163;-52
2022/03/19 09:03:41;;;;;;;26.40;11.60;;;;;;;15.43;39.97;99965.25;4987777;28;20060;-54
2022/03/19 09:06:06;;;;;;;26.00;10.80;;;;;;;17.39;38.07;99956.13;4987650;28;20089;-53
2022/03/19 09:08:31;;;;;;;24.60;10.13;;;;;;;13.88;42.02;99951.81;4985630;28;20033;-54
2022/03/19 09:10:57;;;;;;;25.27;10.75;;;;;;;13.57;43.65;99965.63;4984193;28;20067;-54
2022/03/19 09:13:23;;;;;;;25.38;9.95;;;;;;;13.07;45.33;99964.88;4984635;28;20038;-53
2022/03/19 09:15:48;;;;;;;28.27;11.13;;;;;;;11.74;46.55;99956.66;4987671;28;20045;-53
2022/03/19 09:18:14;;;;;;;30.00;12.02;;;;;;;12.69;47.88;99963.84;4986789;28;20117;-54
2022/03/19 09:20:40;;;;;;;30.38;11.70;;;;;;;13.29;47.35;99954.84;4983327;28;20086;-52
2022/03/19 09:23:05;;;;;;;31.58;12.05;;;;;;;14.77;43.16;99952.22;4985946;28;20590;-54
2022/03/19 09:25:31;;;;;;;35.50;12.95;;;;;;;12.27;47.79;99950.63;4987185;28;20062;-54
2022/03/19 09:27:56;;;;;;;33.10;12.07;;;;;;;14.38;45.64;99949.72;4986534;28;20479;-53
2022/03/19 09:30:21;;;;;;;26.75;11.40;;;;;;;13.57;46.79;99939.41;4983966;28;20026;-54
2022/03/19 09:32:47;;;;;;;33.38;12.63;;;;;;;12.81;48.15;99932.22;4980118;28;20026;-54
2022/03/19 09:35:12;;;;;;;30.23;11.57;;;;;;;11.88;50.22;99938.13;4982508;28;20031;-52
2022/03/19 09:37:37;;;;;;;28.05;12.00;;;;;;;11.58;49.93;99931.63;4982355;28;20185;-54
2022/03/19 09:40:04;;;;;;;25.15;9.32;;;;;;;11.04;52.04;99926.22;4981363;28;20023;-52
2022/03/19 09:42:32;;;;;;;30.38;11.15;;;;;;;11.64;51.94;99921.06;4984751;28;20041;-52
2022/03/19 09:44:58;;;;;;;36.70;11.68;;;;;;;12.33;49.39;99930.47;4986266;28;20179;-53
2022/03/19 09:47:25;;;;;;;31.65;10.73;;;;;;;12.49;50.71;99917.94;4984497;28;20042;-54
2022/03/19 09:49:51;;;;;;;29.48;10.60;;;;;;;14.76;46.88;99913.72;4988444;28;20129;-53
2022/03/19 09:52:19;;;;;;;29.10;10.07;;;;;;;12.28;50.06;99910.50;4981103;28;20125;-54
2022/03/19 09:54:45;;;;;;;30.35;9.73;;;;;;;12.41;49.30;99891.06;4984185;28;20030;-54
2022/03/19 09:57:10;;;;;;;22.65;8.63;;;;;;;14.02;46.70;99894.63;4983984;28;20125;-54
2022/03/19 09:59:36;;;;;;;24.77;9.07;;;;;;;14.62;45.70;99882.56;4983570;28;20507;-54
2022/03/19 10:02:07;;;;;;;24.80;8.30;;;;;;;13.67;46.17;99872.75;4987319;28;20113;-54
2022/03/19 10:04:35;;;;;;;28.63;8.50;;;;;;;12.20;47.43;99878.34;4986082;28;20431;-53
2022/03/19 10:09:46;;;;;;;24.48;7.80;;;;;;;11.65;48.54;99873.13;4984874;28;20058;-53
2022/03/19 10:12:21;;;;;;;24.38;7.72;;;;;;;11.43;49.38;99872.56;4985963;28;20501;-53
2022/03/19 10:14:48;;;;;;;36.38;9.63;;;;;;;11.03;50.83;99872.25;4987163;28;20026;-55
2022/03/19 10:17:34;;;;;;;29.38;8.77;;;;;;;11.87;50.02;99857.06;4990021;28;20039;-54
2022/03/19 10:20:01;;;;;;;27.40;7.60;;;;;;;11.28;50.33;99860.56;4984115;28;20026;-53
2022/03/19 10:22:28;;;;;;;27.25;7.65;;;;;;;11.81;49.80;99857.19;4990323;28;20118;-52
2022/03/19 10:25:03;;;;;;;39.67;10.02;;;;;;;10.75;51.76;99854.31;4988452;28;20030;-54
2022/03/19 10:27:36;;;;;;;24.42;6.20;;;;;;;12.60;47.81;99854.06;4987577;28;20036;-54
2022/03/19 10:30:20;;;;;;;22.30;6.10;;;;;;;14.75;44.03;99838.44;4987877;28;20030;-54
2022/03/19 10:32:58;;;;;;;20.40;5.97;;;;;;;15.45;41.33;99831.09;4988985;28;20178;-55
2022/03/19 10:35:32;;;;;;;21.27;6.00;;;;;;;14.88;43.79;99832.84;4985075;28;20033;-54
2022/03/19 10:38:05;;;;;;;24.38;6.72;;;;;;;14.85;43.45;99825.91;4984683;28;20035;-54
2022/03/19 10:40:39;;;;;;;17.60;5.00;;;;;;;15.01;41.01;99823.69;4985827;28;20042;-54
2022/03/19 10:43:06;;;;;;;17.60;5.47;;;;;;;14.98;40.28;99818.50;4987400;28;20643;-54
2022/03/19 10:45:32;;;;;;;19.30;5.32;;;;;;;13.54;42.22;99818.00;4986062;28;20030;-54
2022/03/19 10:48:01;;;;;;;17.13;4.45;;;;;;;15.87;38.98;99805.19;4986948;28;20491;-53
2022/03/19 10:50:26;;;;;;;16.13;4.30;;;;;;;15.92;37.61;99813.78;4982777;28;20066;-55
2022/03/19 10:52:52;;;;;;;16.35;4.00;;;;;;;15.31;37.60;99789.47;4990335;28;20034;-54
2022/03/19 10:55:19;;;;;;;14.75;3.58;;;;;;;13.33;38.77;99801.03;4986884;28;20122;-54
2022/03/19 10:57:46;;;;;;;17.77;4.38;;;;;;;13.62;38.95;99785.44;4986437;28;20027;-54
2022/03/19 11:00:14;;;;;;;20.63;4.70;;;;;;;13.19;38.24;99782.97;4988616;28;20601;-53
2022/03/19 11:02:45;;;;;;;16.83;4.10;;;;;;;14.48;38.74;99765.66;4988188;28;20118;-55
2022/03/19 11:05:12;;;;;;;20.83;4.63;;;;;;;16.77;37.05;99761.56;4986017;28;20030;-53
2022/03/19 11:07:42;;;;;;;17.50;4.50;;;;;;;16.25;36.89;99763.50;4986894;28;20041;-55
2022/03/19 11:10:08;;;;;;;15.52;4.18;;;;;;;15.22;39.67;99754.69;4984619;28;20026;-55
2022/03/19 11:12:34;;;;;;;17.77;4.45;;;;;;;15.68;36.78;99748.78;4988922;28;20137;-54
2022/03/19 11:15:03;;;;;;;19.23;5.00;;;;;;;15.35;36.60;99749.03;4987786;28;20030;-54
2022/03/19 11:17:36;;;;;;;17.15;3.85;;;;;;;13.83;37.75;99746.47;4984850;28;20038;-55
2022/03/19 11:20:10;;;;;;;13.57;3.72;;;;;;;14.94;37.17;99722.28;4986699;28;20053;-54
2022/03/19 11:22:47;;;;;;;17.52;4.03;;;;;;;15.52;35.11;99723.03;4985361;28;20072;-55